Time;durP1;ratioP1;P1;durP2;ratioP2;P2;SDS_P1;SDS_P2;PMS_P1;PMS_P2;Temp;Humidity;BMP_temperature;BMP_pressure;BME280_temperature;BME280_humidity;BME280_pressure;Samples;Min_cycle;Max_cycle;Signal;HPM_P1;HPM_P2
2022/02/01 00:01:32;;;;;;;30.55;8.90;;;;;;;1.04;100.00;99043.09;6320493;28;20048;-73
2022/02/01 00:14:34;;;;;;;22.58;8.02;;;;;;;1.17;100.00;99042.59;6307344;28;20066;-73
2022/02/01 00:17:53;;;;;;;24.83;8.23;;;;;;;1.20;100.00;99051.91;6324662;28;20420;-73
2022/02/01 00:37:20;;;;;;;24.30;8.45;;;;;;;1.52;100.00;99055.75;6324217;28;20040;-72
2022/02/01 00:40:21;;;;;;;41.28;9.98;;;;;;;1.41;100.00;99047.66;6324036;28;20056;-69
2022/02/01 00:43:23;;;;;;;22.60;7.80;;;;;;;1.14;100.00;99050.38;6305735;28;20040;-68
2022/02/01 00:46:24;;;;;;;26.97;8.20;;;;;;;1.14;100.00;99042.69;6323776;28;20040;-73
2022/02/01 00:49:27;;;;;;;23.45;8.13;;;;;;;1.11;100.00;99049.66;6323815;28;20123;-73
2022/02/01 00:52:29;;;;;;;25.45;9.57;;;;;;;1.12;100.00;99052.19;6323755;28;20118;-69
2022/02/01 00:55:30;;;;;;;23.55;8.32;;;;;;;1.13;100.00;99053.88;6305672;28;20040;-73
2022/02/01 00:58:31;;;;;;;22.23;8.75;;;;;;;1.14;100.00;99036.72;6323684;28;20051;-73
2022/02/01 01:01:32;;;;;;;25.33;8.80;;;;;;;1.08;100.00;99045.50;6323743;28;20040;-73
2022/02/01 01:04:33;;;;;;;25.75;9.23;;;;;;;1.11;100.00;99035.09;6323542;28;20102;-73
2022/02/01 01:07:34;;;;;;;27.08;9.70;;;;;;;1.13;100.00;99023.03;6305434;28;20044;-69
2022/02/01 01:10:35;;;;;;;28.80;9.88;;;;;;;1.25;100.00;99018.31;6305281;28;20044;-68
2022/02/01 01:53:22;;;;;;;21.88;8.35;;;;;;;1.11;100.00;99000.84;6322205;28;20127;-69
2022/02/01 01:56:24;;;;;;;22.38;8.98;;;;;;;1.12;100.00;99000.78;6305651;28;20067;-69
2022/02/01 01:59:25;;;;;;;27.10;8.18;;;;;;;1.41;100.00;98993.66;6304306;28;20056;-69
2022/02/01 02:02:26;;;;;;;21.83;8.55;;;;;;;1.25;100.00;98990.03;6321975;28;20068;-69
2022/02/01 02:05:27;;;;;;;18.50;8.27;;;;;;;1.25;100.00;98982.31;6287495;28;20046;-69
2022/02/01 02:08:30;;;;;;;26.45;8.07;;;;;;;1.09;100.00;98995.78;6321949;28;20036;-73
2022/02/01 02:11:51;;;;;;;;;;;;;;;1.10;100.00;99001.75;6322262;28;20047;-73
2022/02/01 02:14:52;;;;;;;27.17;8.23;;;;;;;1.43;100.00;98998.75;6321806;28;20384;-70
2022/02/01 02:17:59;;;;;;;31.92;9.30;;;;;;;1.65;100.00;99012.41;6321844;28;20039;-69
2022/02/01 02:21:01;;;;;;;25.20;8.90;;;;;;;1.49;100.00;99001.06;6321577;28;20071;-69
2022/02/01 02:24:03;;;;;;;25.95;9.52;;;;;;;1.28;100.00;99011.31;6321709;28;20047;-70
2022/02/01 02:27:05;;;;;;;29.30;8.05;;;;;;;1.23;100.00;99017.53;6286370;28;20110;-73
2022/02/01 02:30:06;;;;;;;25.90;8.65;;;;;;;1.16;100.00;99015.19;6303417;28;20454;-73
2022/02/01 02:33:13;;;;;;;33.45;9.48;;;;;;;1.09;100.00;99016.34;6286873;28;20545;-73
2022/02/01 02:36:20;;;;;;;30.85;10.45;;;;;;;1.05;100.00;99013.94;6321357;28;20040;-70
2022/02/01 02:45:03;;;;;;;26.83;10.15;;;;;;;1.04;100.00;99002.00;6303656;28;20044;-73
2022/02/01 02:45:45;;;;;;;35.20;10.57;;;;;;;1.08;100.00;99013.81;6305754;28;20044;-73
2022/02/01 02:48:46;;;;;;;29.58;9.43;;;;;;;1.13;100.00;99014.47;6265189;28;20051;-73
2022/02/01 02:51:48;;;;;;;26.67;9.63;;;;;;;1.19;100.00;99015.09;6296094;28;20041;-69
2022/02/01 02:54:49;;;;;;;24.13;9.18;;;;;;;1.17;100.00;99019.44;6296024;28;20068;-73
2022/02/01 02:57:50;;;;;;;30.80;10.43;;;;;;;1.19;100.00;99022.81;6296060;28;20449;-69
2022/02/01 03:00:51;;;;;;;30.00;10.10;;;;;;;1.19;100.00;99021.94;6296497;28;20056;-69
2022/02/01 03:03:51;;;;;;;19.60;9.10;;;;;;;1.19;100.00;99029.66;6261720;28;20045;-69
2022/02/01 03:06:53;;;;;;;23.48;9.23;;;;;;;1.20;100.00;99039.88;6261563;28;20040;-73
2022/02/01 03:09:54;;;;;;;27.63;9.07;;;;;;;1.19;100.00;99038.22;6261467;28;20058;-73
2022/02/01 03:16:03;;;;;;;28.55;10.43;;;;;;;1.20;100.00;99044.19;6278117;28;20456;-73
2022/02/01 03:22:28;;;;;;;31.67;9.25;;;;;;;1.11;100.00;99047.09;6266575;28;20072;-69
2022/02/01 03:25:28;;;;;;;34.03;9.18;;;;;;;1.07;100.00;99045.53;6277921;28;20043;-69
2022/02/01 03:28:30;;;;;;;28.60;9.60;;;;;;;1.05;100.00;99050.75;6261412;28;20036;-69
2022/02/01 03:31:31;;;;;;;32.95;9.38;;;;;;;1.07;100.00;99041.25;6295561;28;20094;-69
2022/02/01 03:34:32;;;;;;;21.90;9.02;;;;;;;1.09;100.00;99044.59;6261219;28;20052;-69
2022/02/01 03:37:33;;;;;;;24.48;8.55;;;;;;;1.08;100.00;99045.50;6263360;28;20091;-69
2022/02/01 03:40:34;;;;;;;20.33;7.85;;;;;;;1.07;100.00;99051.53;6300386;28;20048;-69
2022/02/01 03:43:35;;;;;;;28.42;9.23;;;;;;;1.07;100.00;99051.53;6282453;28;20045;-69
2022/02/01 03:46:35;;;;;;;28.35;8.40;;;;;;;1.08;100.00;99055.75;6269002;28;20411;-69
2022/02/01 03:49:41;;;;;;;24.00;8.85;;;;;;;1.09;100.00;99052.31;6290644;28;20055;-69
2022/02/01 03:52:42;;;;;;;29.60;8.45;;;;;;;1.07;100.00;99050.69;6325093;28;20047;-69
2022/02/01 03:55:43;;;;;;;20.88;8.30;;;;;;;1.07;100.00;99054.09;6307123;28;20044;-73
2022/02/01 03:58:44;;;;;;;33.03;8.82;;;;;;;1.00;100.00;99066.31;6324984;28;20480;-73
2022/02/01 04:01:44;;;;;;;29.05;7.82;;;;;;;0.95;100.00;99063.09;6325031;28;20050;-73
2022/02/01 04:04:51;;;;;;;20.77;7.55;;;;;;;0.94;100.00;99063.16;6290421;28;20051;-70
2022/02/01 04:07:52;;;;;;;32.28;8.80;;;;;;;0.95;100.00;99057.97;6307627;28;20051;-69
2022/02/01 04:10:53;;;;;;;17.73;7.72;;;;;;;1.00;100.00;99075.78;6290150;28;20485;-69
2022/02/01 04:13:54;;;;;;;26.40;8.15;;;;;;;1.03;100.00;99079.94;6324600;28;20036;-70
2022/02/01 04:16:57;;;;;;;27.55;8.43;;;;;;;1.04;100.00;99079.06;6306829;28;20092;-69
2022/02/01 04:19:57;;;;;;;29.42;8.13;;;;;;;1.02;100.00;99088.56;6306463;28;20176;-73
2022/02/01 04:22:58;;;;;;;24.58;7.85;;;;;;;0.88;100.00;99086.50;6289892;28;20057;-73
2022/02/01 04:25:59;;;;;;;22.77;7.95;;;;;;;0.86;100.00;99089.13;6289612;28;20055;-73
2022/02/01 04:29:00;;;;;;;24.15;8.73;;;;;;;0.92;100.00;99090.63;6289858;28;20067;-73
2022/02/01 04:32:00;;;;;;;28.52;7.88;;;;;;;0.91;100.00;99100.06;6324064;28;20044;-73
2022/02/01 04:35:02;;;;;;;25.90;8.07;;;;;;;0.84;100.00;99098.59;6306209;28;20456;-73
2022/02/01 04:38:03;;;;;;;27.02;10.40;;;;;;;0.79;100.00;99096.22;6306244;28;20036;-70
2022/02/01 04:41:04;;;;;;;28.05;9.48;;;;;;;0.76;100.00;99100.63;6305820;28;20047;-72
2022/02/01 04:44:05;;;;;;;30.98;8.82;;;;;;;0.68;100.00;99110.31;6323988;28;20044;-73
2022/02/01 04:47:06;;;;;;;28.55;9.35;;;;;;;0.65;100.00;99110.44;6323704;28;20058;-73
2022/02/01 04:50:12;;;;;;;32.58;9.90;;;;;;;0.61;100.00;99119.97;6304662;28;20040;-73
2022/02/01 04:53:13;;;;;;;37.08;9.73;;;;;;;0.67;100.00;99124.91;6323760;28;20399;-72
2022/02/01 04:56:16;;;;;;;31.20;10.10;;;;;;;0.75;100.00;99129.78;6305683;28;20568;-69
2022/02/01 04:59:17;;;;;;;32.97;9.27;;;;;;;0.75;100.00;99140.88;6305538;28;20040;-68
2022/02/01 05:02:18;;;;;;;32.33;9.82;;;;;;;0.77;100.00;99144.22;6289014;28;20442;-69
2022/02/01 05:05:24;;;;;;;30.92;9.57;;;;;;;0.79;100.00;99141.59;6323374;28;20042;-73
2022/02/01 05:08:26;;;;;;;29.23;8.55;;;;;;;0.74;100.00;99139.22;6323616;28;20041;-73
2022/02/01 05:11:27;;;;;;;26.05;8.18;;;;;;;0.76;100.00;99136.56;6289335;28;20047;-69
2022/02/01 05:14:29;;;;;;;25.23;8.75;;;;;;;0.73;100.00;99134.94;6288538;28;20476;-73
2022/02/01 05:17:30;;;;;;;24.35;8.13;;;;;;;0.68;100.00;99139.44;6323154;28;20040;-69
2022/02/01 05:20:46;;;;;;;26.67;8.10;;;;;;;0.73;100.00;99152.94;6323078;28;20093;-69
2022/02/01 05:23:48;;;;;;;21.02;7.85;;;;;;;0.75;100.00;99163.16;6305012;28;20416;-69
2022/02/01 05:26:49;;;;;;;30.48;11.60;;;;;;;0.71;100.00;99159.84;6323100;28;20071;-73
2022/02/01 05:29:50;;;;;;;38.80;14.02;;;;;;;0.77;100.00;99176.78;6288225;28;20403;-73
2022/02/01 05:32:51;;;;;;;27.35;10.05;;;;;;;0.79;100.00;99168.13;6288093;28;20119;-73
2022/02/01 05:35:51;;;;;;;38.05;9.88;;;;;;;0.83;100.00;99183.44;6288156;28;20040;-73
2022/02/01 05:38:53;;;;;;;25.25;9.98;;;;;;;0.83;100.00;99189.41;6304447;28;20056;-74
2022/02/01 05:41:57;;;;;;;27.08;10.20;;;;;;;0.78;100.00;99192.13;6322665;28;20066;-73
2022/02/01 05:44:57;;;;;;;29.38;11.55;;;;;;;0.64;100.00;99198.63;6304753;28;20123;-70
2022/02/01 05:47:58;;;;;;;36.90;11.52;;;;;;;0.70;100.00;99199.28;6304199;28;20052;-73
2022/02/01 05:51:00;;;;;;;34.03;9.93;;;;;;;0.43;100.00;99218.16;6287761;28;20071;-73
2022/02/01 05:54:01;;;;;;;26.90;8.85;;;;;;;0.64;100.00;99219.16;6302980;28;20039;-73
2022/02/01 05:57:03;;;;;;;25.92;9.25;;;;;;;0.63;100.00;99215.75;6303172;28;20040;-69
2022/02/01 06:00:06;;;;;;;31.70;10.83;;;;;;;0.66;100.00;99210.53;6286724;28;20043;-70
2022/02/01 06:03:07;;;;;;;31.58;12.73;;;;;;;0.61;100.00;99214.97;6303307;28;20042;-68
2022/02/01 06:06:07;;;;;;;43.90;17.15;;;;;;;0.60;100.00;99214.13;6302993;28;20048;-69
2022/02/01 06:09:08;;;;;;;40.60;14.60;;;;;;;0.57;100.00;99221.94;6287082;28;20071;-69
2022/02/01 06:12:09;;;;;;;40.05;13.55;;;;;;;0.56;100.00;99224.56;6303587;28;20051;-68
2022/02/01 06:15:11;;;;;;;40.40;12.13;;;;;;;0.60;100.00;99232.09;6287024;28;20075;-73
2022/02/01 06:18:12;;;;;;;38.93;12.80;;;;;;;0.65;100.00;99226.81;6321766;28;20044;-72
2022/02/01 06:21:13;;;;;;;26.35;11.65;;;;;;;0.66;100.00;99233.66;6321492;28;20126;-72
2022/02/01 06:24:18;;;;;;;32.90;14.40;;;;;;;0.67;100.00;99237.03;6286944;28;20407;-72
2022/02/01 06:27:19;;;;;;;35.00;14.07;;;;;;;0.65;100.00;99238.81;6321301;28;20093;-72
2022/02/01 06:30:20;;;;;;;31.58;13.23;;;;;;;0.62;100.00;99247.47;6303336;28;20051;-72
2022/02/01 06:33:21;;;;;;;32.35;13.23;;;;;;;0.62;100.00;99254.31;6321141;28;20040;-72
2022/02/01 06:36:22;;;;;;;35.60;14.27;;;;;;;0.69;100.00;99256.63;6303169;28;20071;-72
2022/02/01 06:39:26;;;;;;;34.35;12.98;;;;;;;0.67;100.00;99262.72;6303083;28;20048;-72
2022/02/01 06:42:27;;;;;;;41.03;14.48;;;;;;;0.64;100.00;99268.78;6321212;28;20410;-73
2022/02/01 06:45:28;;;;;;;40.03;14.32;;;;;;;0.74;100.00;99269.31;6303199;28;20483;-73
2022/02/01 06:48:29;;;;;;;33.78;14.20;;;;;;;0.63;100.00;99274.81;6320838;28;20052;-73
2022/02/01 06:51:30;;;;;;;48.03;15.50;;;;;;;0.74;100.00;99280.44;6303000;28;20114;-72
2022/02/01 06:54:33;;;;;;;30.30;14.35;;;;;;;0.82;100.00;99285.31;6302830;28;20044;-73
2022/02/01 06:57:37;;;;;;;30.63;13.65;;;;;;;0.88;100.00;99297.13;6303170;28;20126;-73
2022/02/01 07:00:38;;;;;;;43.08;14.13;;;;;;;0.77;100.00;99295.75;6302851;28;20055;-73
2022/02/01 07:03:39;;;;;;;42.08;14.32;;;;;;;0.82;100.00;99316.13;6320884;28;20101;-68
2022/02/01 07:06:40;;;;;;;34.10;12.75;;;;;;;0.90;100.00;99314.13;6320737;28;20040;-68
2022/02/01 07:09:41;;;;;;;32.65;13.38;;;;;;;1.00;100.00;99320.66;6320848;28;20036;-69
2022/02/01 07:12:42;;;;;;;29.38;13.13;;;;;;;1.08;100.00;99319.56;6323181;28;20032;-69
2022/02/01 07:15:43;;;;;;;33.58;13.38;;;;;;;1.07;100.00;99321.31;6291304;28;20040;-68
2022/02/01 07:18:45;;;;;;;37.65;13.10;;;;;;;1.16;100.00;99325.28;6308011;28;20126;-69
2022/02/01 07:21:46;;;;;;;32.07;12.43;;;;;;;1.14;100.00;99342.50;6325875;28;20054;-68
2022/02/01 07:24:59;;;;;;;37.53;13.43;;;;;;;1.20;100.00;99337.13;6325766;28;20028;-69
2022/02/01 07:28:02;;;;;;;37.85;13.07;;;;;;;1.22;100.00;99349.94;6261660;28;20554;-69
2022/02/01 07:31:04;;;;;;;34.85;12.82;;;;;;;1.29;100.00;99347.09;6325544;28;20040;-73
2022/02/01 07:34:05;;;;;;;28.47;11.90;;;;;;;1.28;100.00;99347.16;6325449;28;20032;-73
2022/02/01 07:37:05;;;;;;;31.52;12.13;;;;;;;1.28;100.00;99353.16;6290730;28;20094;-68
2022/02/01 07:40:08;;;;;;;33.25;13.70;;;;;;;1.20;100.00;99366.25;6325268;28;20044;-68
2022/02/01 07:43:09;;;;;;;38.20;12.93;;;;;;;1.22;100.00;99362.81;6307319;28;20488;-68
2022/02/01 07:46:14;;;;;;;38.38;13.80;;;;;;;1.29;100.00;99374.53;6307045;28;20109;-69
2022/02/01 07:49:18;;;;;;;30.63;12.77;;;;;;;1.34;100.00;99376.06;6325251;28;20476;-69
2022/02/01 07:52:19;;;;;;;31.02;12.75;;;;;;;1.40;100.00;99373.28;6290613;28;20446;-69
2022/02/01 07:55:20;;;;;;;40.95;12.15;;;;;;;1.52;99.55;99374.56;6306910;28;20040;-72
2022/02/01 07:58:20;;;;;;;34.90;11.73;;;;;;;1.55;97.79;99389.06;6324826;28;20495;-73
2022/02/01 08:01:21;;;;;;;36.40;13.20;;;;;;;1.39;99.91;99399.88;6306799;28;20507;-73
2022/02/01 08:04:22;;;;;;;41.35;14.43;;;;;;;1.50;99.11;99402.06;6306777;28;20093;-73
2022/02/01 08:07:24;;;;;;;40.90;13.88;;;;;;;1.42;97.78;99398.91;6306609;28;20052;-73
2022/02/01 08:10:30;;;;;;;30.25;13.38;;;;;;;1.39;98.54;99384.44;6306619;28;20044;-73
2022/02/01 08:17:26;;;;;;;29.48;11.85;;;;;;;1.27;99.43;99384.03;6266839;28;20504;-73
2022/02/01 08:20:27;;;;;;;30.67;10.40;;;;;;;1.26;98.92;99385.75;6295522;28;20101;-73
2022/02/01 08:23:28;;;;;;;34.83;12.68;;;;;;;1.33;99.04;99386.38;6306958;28;20064;-73
2022/02/01 08:26:28;;;;;;;35.67;12.35;;;;;;;1.47;98.87;99391.91;6306186;28;20050;-73
2022/02/01 08:29:29;;;;;;;32.28;11.30;;;;;;;1.38;98.38;99392.19;6306211;28;20488;-73
2022/02/01 08:32:30;;;;;;;32.55;11.45;;;;;;;1.59;97.53;99386.34;6306155;28;20471;-69
2022/02/01 08:35:31;;;;;;;25.63;9.93;;;;;;;1.70;95.88;99391.09;6306187;28;20044;-69
2022/02/01 08:38:32;;;;;;;37.70;13.32;;;;;;;1.74;95.23;99390.09;6289246;28;20082;-69
2022/02/01 08:41:33;;;;;;;29.92;11.05;;;;;;;1.79;94.79;99395.06;6323947;28;20052;-69
2022/02/01 08:44:35;;;;;;;31.00;10.95;;;;;;;1.94;93.74;99398.84;6305831;28;20131;-69
2022/02/01 08:47:37;;;;;;;36.20;12.55;;;;;;;1.93;92.37;99400.56;6323541;28;20060;-69
2022/02/01 08:50:38;;;;;;;34.42;11.90;;;;;;;1.80;94.22;99407.88;6288994;28;20040;-69
2022/02/01 08:53:48;;;;;;;31.17;11.38;;;;;;;1.80;93.64;99404.47;6305649;28;20051;-70
2022/02/01 09:00:13;;;;;;;36.58;12.77;;;;;;;1.79;92.97;99405.38;6323579;28;20036;-73
2022/02/01 09:03:14;;;;;;;26.77;11.07;;;;;;;1.84;94.51;99403.47;6305470;28;20040;-73
2022/02/01 09:06:15;;;;;;;37.88;11.75;;;;;;;1.93;94.14;99408.28;6288766;28;20044;-73
2022/02/01 09:09:16;;;;;;;35.53;12.23;;;;;;;1.85;92.90;99406.88;6305235;28;20510;-73
2022/02/01 09:12:18;;;;;;;25.52;12.27;;;;;;;2.01;92.75;99418.31;6323197;28;20048;-73
2022/02/01 09:15:19;;;;;;;37.72;11.82;;;;;;;1.92;92.79;99422.06;6305170;28;20045;-73
2022/02/01 09:18:20;;;;;;;37.83;13.50;;;;;;;1.94;92.46;99416.88;6322835;28;20475;-73
2022/02/01 09:21:21;;;;;;;35.67;12.48;;;;;;;1.93;91.83;99422.88;6322966;28;20040;-73
2022/02/01 09:24:23;;;;;;;40.88;14.73;;;;;;;1.98;92.68;99426.97;6304876;28;20040;-73
2022/02/01 09:27:24;;;;;;;32.07;12.27;;;;;;;2.18;91.20;99431.44;6322826;28;20047;-73
2022/02/01 09:30:25;;;;;;;31.60;11.38;;;;;;;2.15;88.80;99434.09;6304732;28;20042;-73
2022/02/01 09:33:26;;;;;;;36.13;11.60;;;;;;;2.14;87.83;99444.44;6304732;28;20048;-73
2022/02/01 09:36:27;;;;;;;30.48;11.50;;;;;;;2.27;88.88;99448.25;6303805;28;20046;-73
2022/02/01 09:39:28;;;;;;;32.55;11.85;;;;;;;2.36;87.04;99453.06;6322487;28;20093;-73
2022/02/01 09:42:29;;;;;;;34.50;12.35;;;;;;;2.53;87.81;99446.44;6322511;28;20040;-69
2022/02/01 09:45:33;;;;;;;33.92;12.38;;;;;;;2.42;87.80;99446.84;6304333;28;20043;-73
2022/02/01 09:48:34;;;;;;;35.50;13.13;;;;;;;2.70;85.63;99440.63;6284467;28;20056;-73
2022/02/01 09:51:35;;;;;;;34.65;11.38;;;;;;;2.57;83.55;99446.28;6262649;28;20110;-73
2022/02/01 09:54:36;;;;;;;36.65;12.40;;;;;;;2.49;84.03;99455.19;6279278;28;20493;-73
2022/02/01 09:57:37;;;;;;;34.92;11.95;;;;;;;2.67;83.78;99451.06;6296762;28;20101;-73
2022/02/01 10:00:45;;;;;;;33.65;12.25;;;;;;;2.91;81.11;99447.56;6279149;28;20048;-73
2022/02/01 10:03:58;;;;;;;46.97;14.38;;;;;;;3.01;81.34;99450.63;6279049;28;20037;-73
2022/02/01 10:07:09;;;;;;;;;;;;;;;3.01;80.48;99455.78;6297095;28;20050;-73
2022/02/01 10:10:10;;;;;;;36.67;12.20;;;;;;;2.94;80.66;99457.72;6296554;28;20288;-73
2022/02/01 10:13:17;;;;;;;27.70;11.80;;;;;;;3.20;80.17;99463.59;6278844;28;20480;-69
2022/02/01 10:16:31;;;;;;;28.75;12.77;;;;;;;3.37;80.65;99460.34;6296483;28;20068;-69
2022/02/01 10:19:32;;;;;;;28.85;11.27;;;;;;;3.05;80.26;99454.75;6263971;28;20086;-69
2022/02/01 10:22:35;;;;;;;33.10;11.52;;;;;;;2.93;79.64;99450.06;6278604;28;20544;-73
2022/02/01 10:25:36;;;;;;;22.63;11.13;;;;;;;2.99;79.35;99460.16;6278600;28;20538;-73
2022/02/01 10:32:25;;;;;;;31.77;12.40;;;;;;;3.77;74.73;99467.28;6279762;28;20497;-74
2022/02/01 10:35:36;;;;;;;;;;;;;;;3.25;75.62;99458.25;6296546;28;20412;-70
2022/02/01 10:38:37;;;;;;;33.05;11.52;;;;;;;3.34;76.02;99460.47;6278327;28;20487;-70
2022/02/01 10:41:38;;;;;;;34.45;11.27;;;;;;;3.84;74.36;99468.66;6278275;28;20044;-69
2022/02/01 10:44:47;;;;;;;41.92;10.95;;;;;;;4.17;70.67;99462.13;6278367;28;20447;-70
2022/02/01 10:47:48;;;;;;;25.65;9.68;;;;;;;4.34;69.45;99459.63;6290242;28;20121;-69
2022/02/01 10:51:02;;;;;;;37.50;11.15;;;;;;;4.36;69.68;99456.97;6320981;28;20407;-70
2022/02/01 10:54:04;;;;;;;37.28;10.13;;;;;;;4.58;68.47;99449.91;6320924;28;20496;-69
2022/02/01 10:57:07;;;;;;;36.58;10.45;;;;;;;4.91;67.26;99457.00;6303499;28;20072;-70
2022/02/01 11:00:10;;;;;;;26.27;9.68;;;;;;;4.99;64.79;99456.66;6320684;28;20036;-70
2022/02/01 11:03:13;;;;;;;32.85;10.52;;;;;;;5.08;65.74;99451.03;6320938;28;20146;-70
2022/02/01 11:06:15;;;;;;;27.83;9.43;;;;;;;5.33;65.82;99455.84;6302845;28;20071;-69
2022/02/01 11:09:19;;;;;;;25.67;9.80;;;;;;;4.98;65.28;99444.63;6302845;28;20040;-69
2022/02/01 11:12:20;;;;;;;28.25;9.02;;;;;;;5.01;64.97;99449.66;6320535;28;20111;-70
2022/02/01 11:15:24;;;;;;;26.60;9.98;;;;;;;5.24;66.39;99449.38;6320727;28;20047;-70
2022/02/01 11:18:26;;;;;;;30.98;10.45;;;;;;;5.43;66.51;99453.66;6320659;28;20089;-69
2022/02/01 11:21:28;;;;;;;33.03;10.63;;;;;;;5.30;65.38;99456.00;6320620;28;20070;-69
2022/02/01 11:24:36;;;;;;;30.00;10.27;;;;;;;5.31;62.61;99457.69;6286088;28;20047;-70
2022/02/01 11:28:00;;;;;;;37.53;10.13;;;;;;;5.61;64.29;99455.34;6286710;28;20408;-69
2022/02/01 11:31:02;;;;;;;30.15;8.38;;;;;;;5.38;61.35;99453.06;6302486;28;20033;-70
2022/02/01 11:34:05;;;;;;;;;;;;;;;5.52;62.66;99449.78;6321059;28;20044;-70
2022/02/01 11:37:10;;;;;;;30.50;9.23;;;;;;;5.55;63.12;99444.47;6320930;28;19929;-69
2022/02/01 11:40:14;;;;;;;26.80;9.20;;;;;;;5.31;61.51;99436.16;6302471;28;20040;-69
2022/02/01 11:43:25;;;;;;;20.35;7.97;;;;;;;5.58;59.31;99433.94;6320448;28;20040;-73
2022/02/01 11:46:26;;;;;;;22.15;8.32;;;;;;;5.44;57.87;99440.66;6320700;28;20047;-73
2022/02/01 11:49:26;;;;;;;33.58;9.93;;;;;;;5.41;59.42;99443.38;6320231;28;20048;-73
2022/02/01 11:52:28;;;;;;;31.58;10.88;;;;;;;5.11;59.96;99429.38;6320056;28;20050;-69
2022/02/01 11:55:31;;;;;;;30.17;10.70;;;;;;;5.51;59.15;99428.25;6320297;28;20550;-69
2022/02/01 11:58:35;;;;;;;;;;;;;;;5.47;59.41;99437.06;6322597;28;20094;-70
2022/02/01 12:01:38;;;;;;;29.50;9.43;;;;;;;5.51;59.66;99437.75;6324887;28;19965;-69
2022/02/01 12:04:42;;;;;;;114.20;42.25;;;;;;;5.84;59.45;99432.63;6324744;28;20044;-70
2022/02/01 12:08:04;;;;;;;26.05;11.45;;;;;;;5.72;59.78;99430.66;6290281;28;20040;-69
2022/02/01 12:11:07;;;;;;;25.60;9.82;;;;;;;6.07;60.09;99431.47;6306473;28;20044;-69
2022/02/01 12:14:08;;;;;;;24.98;8.63;;;;;;;6.02;56.37;99436.06;6324651;28;20040;-73
2022/02/01 12:17:09;;;;;;;23.70;8.10;;;;;;;5.59;57.78;99431.28;6324487;28;20502;-74
2022/02/01 12:20:15;;;;;;;28.65;9.73;;;;;;;5.72;56.07;99435.84;6306456;28;20047;-73
2022/02/01 12:23:26;;;;;;;24.85;9.70;;;;;;;5.77;56.58;99423.50;6324387;28;20040;-73
2022/02/01 12:26:30;;;;;;;31.92;9.38;;;;;;;5.77;57.47;99416.56;6306276;28;20067;-73
2022/02/01 12:29:31;;;;;;;30.00;8.70;;;;;;;5.81;57.09;99425.84;6324063;28;20044;-73
2022/02/01 12:32:33;;;;;;;26.90;8.40;;;;;;;5.78;55.67;99418.22;6324135;28;20047;-74
2022/02/01 12:35:36;;;;;;;28.98;7.55;;;;;;;5.45;54.17;99421.63;6324029;28;20105;-73
2022/02/01 12:38:40;;;;;;;22.45;7.68;;;;;;;5.56;53.46;99421.09;6289385;28;20436;-73
2022/02/01 12:42:13;;;;;;;19.40;7.03;;;;;;;5.62;53.31;99415.63;6306010;28;20048;-73
2022/02/01 12:48:35;;;;;;;24.20;7.30;;;;;;;5.73;56.35;99417.66;6323450;28;20066;-73
2022/02/01 12:51:42;;;;;;;16.85;7.38;;;;;;;6.08;53.64;99409.00;6323724;28;20068;-73
2022/02/01 12:54:43;;;;;;;24.20;7.13;;;;;;;5.99;53.03;99416.34;6323612;28;20044;-73
2022/02/01 12:57:44;;;;;;;22.80;7.45;;;;;;;5.98;54.88;99413.81;6305743;28;20040;-70
2022/02/01 13:00:51;;;;;;;17.88;5.95;;;;;;;6.30;51.88;99421.63;6288807;28;20125;-69
2022/02/01 13:03:51;;;;;;;19.42;7.43;;;;;;;5.87;50.48;99435.06;6323550;28;20114;-69
2022/02/01 13:06:53;;;;;;;15.00;6.82;;;;;;;5.98;51.19;99439.72;6305345;28;20498;-69
2022/02/01 13:16:44;;;;;;;18.10;6.25;;;;;;;5.98;52.59;99437.13;6245693;28;20049;-69
2022/02/01 13:20:06;;;;;;;20.83;7.78;;;;;;;5.86;55.01;99446.31;6305833;28;20040;-70
2022/02/01 13:23:09;;;;;;;17.70;6.65;;;;;;;5.10;56.68;99448.38;6305105;28;20044;-69
2022/02/01 13:26:14;;;;;;;19.27;8.07;;;;;;;4.88;59.15;99453.72;6304844;28;20036;-69
2022/02/01 13:29:17;;;;;;;24.55;8.20;;;;;;;4.71;60.22;99449.34;6322718;28;20048;-69
2022/02/01 13:32:18;;;;;;;22.05;7.88;;;;;;;4.84;61.99;99459.06;6304945;28;20040;-69
2022/02/01 13:35:20;;;;;;;19.35;7.30;;;;;;;4.65;61.89;99453.06;6322831;28;20439;-70
2022/02/01 13:38:25;;;;;;;29.08;8.20;;;;;;;4.48;61.52;99463.34;6322590;28;20048;-69
2022/02/01 13:41:29;;;;;;;16.92;8.10;;;;;;;4.62;61.05;99461.78;6322753;28;20487;-73
2022/02/01 13:44:31;;;;;;;21.70;9.20;;;;;;;4.70;62.73;99453.69;6304355;28;20040;-73
2022/02/01 13:47:41;;;;;;;20.83;8.60;;;;;;;4.58;62.94;99460.25;6322037;28;20070;-73
2022/02/01 13:50:43;;;;;;;21.35;8.30;;;;;;;4.72;62.44;99462.22;6304057;28;20040;-74
2022/02/01 13:53:44;;;;;;;27.80;9.90;;;;;;;4.56;63.07;99464.66;6322301;28;20066;-73
2022/02/01 13:56:47;;;;;;;23.63;8.00;;;;;;;4.48;63.80;99464.16;6287543;28;20488;-73
2022/02/01 13:59:49;;;;;;;23.30;8.05;;;;;;;4.44;64.60;99465.22;6304242;28;20047;-73
2022/02/01 14:02:57;;;;;;;;;;;;;;;4.44;65.16;99468.63;6322550;28;20051;-73
2022/02/01 14:35:32;;;;;;;26.02;11.65;;;;;;;4.03;68.59;99497.09;6304736;28;20400;-73
2022/02/01 14:38:45;;;;;;;24.40;11.98;;;;;;;4.04;68.48;99498.81;6321224;28;20094;-73
2022/02/01 14:45:06;;;;;;;26.33;10.68;;;;;;;3.99;67.45;99494.72;6321132;28;19930;-70
2022/02/01 14:48:07;;;;;;;35.35;13.82;;;;;;;3.88;68.14;99489.19;6321052;28;20078;-69
2022/02/01 14:51:09;;;;;;;44.08;15.38;;;;;;;3.82;70.46;99488.53;6302816;28;20484;-68
2022/02/01 14:54:16;;;;;;;40.55;15.90;;;;;;;3.62;69.41;99485.97;6303283;28;20511;-69
2022/02/01 15:04:14;;;;;;;35.05;16.27;;;;;;;3.44;71.32;99490.16;6305629;28;20036;-73
2022/02/01 15:07:19;;;;;;;38.45;18.00;;;;;;;3.37;71.83;99491.28;6320896;28;20040;-69
2022/02/01 15:13:39;;;;;;;56.10;22.20;;;;;;;3.26;71.36;99502.03;6320904;28;20407;-69
2022/02/01 15:16:40;;;;;;;48.60;21.60;;;;;;;3.28;71.72;99497.66;6286115;28;20037;-69
2022/02/01 15:19:42;;;;;;;53.60;19.85;;;;;;;3.21;71.88;99494.50;6320711;28;20051;-69
2022/02/01 15:22:44;;;;;;;50.35;21.65;;;;;;;3.16;71.67;99477.50;6302641;28;20556;-69
2022/02/01 15:25:46;;;;;;;52.05;21.15;;;;;;;3.09;72.26;99484.66;6303006;28;20071;-73
2022/02/01 15:28:47;;;;;;;52.28;21.00;;;;;;;3.02;72.65;99490.94;6302732;28;20040;-73
2022/02/01 15:31:47;;;;;;;39.40;18.73;;;;;;;2.96;72.91;99501.47;6302423;28;20044;-73
2022/02/01 15:34:48;;;;;;;40.88;17.30;;;;;;;2.87;74.31;99486.41;6306819;28;20040;-73
2022/02/01 15:37:52;;;;;;;40.60;17.75;;;;;;;2.73;74.71;99486.91;6290870;28;20055;-73
2022/02/01 15:55:04;;;;;;;51.83;20.20;;;;;;;2.36;77.14;99480.53;6295630;28;20071;-73
2022/02/01 15:57:53;;;;;;;67.43;22.77;;;;;;;2.28;77.62;99483.38;6289289;28;20048;-73
2022/02/01 16:00:56;;;;;;;75.65;26.40;;;;;;;2.10;78.17;99490.06;6325071;28;20399;-73
2022/02/01 16:04:00;;;;;;;76.60;27.92;;;;;;;2.09;78.99;99490.94;6325199;28;20044;-73
2022/02/01 16:07:09;;;;;;;69.85;25.52;;;;;;;2.09;80.60;99487.53;6325137;28;20066;-73
2022/02/01 16:13:22;;;;;;;81.47;26.75;;;;;;;2.09;80.33;99487.53;6299663;28;20060;-74
2022/02/01 16:16:23;;;;;;;77.47;27.92;;;;;;;2.04;81.73;99487.69;6281952;28;20041;-73
2022/02/01 16:19:24;;;;;;;77.93;29.02;;;;;;;2.03;81.91;99478.28;6281897;28;20044;-73
2022/02/01 16:22:25;;;;;;;82.05;29.63;;;;;;;1.98;82.78;99485.34;6281731;28;20052;-69
2022/02/01 16:25:26;;;;;;;93.43;32.88;;;;;;;1.96;82.95;99481.97;6281647;28;20393;-69
2022/02/01 16:28:27;;;;;;;81.20;31.58;;;;;;;1.92;82.67;99470.09;6265145;28;20083;-69
2022/02/01 16:31:31;;;;;;;80.35;34.08;;;;;;;1.91;82.72;99476.13;6264958;28;20517;-69
2022/02/01 16:34:31;;;;;;;91.47;36.33;;;;;;;1.97;82.40;99475.91;6299278;28;20037;-69
2022/02/01 16:37:33;;;;;;;82.68;35.03;;;;;;;1.97;83.07;99479.31;6264892;28;20139;-69
2022/02/01 16:40:37;;;;;;;90.10;35.05;;;;;;;1.95;83.01;99475.13;6281394;28;20059;-69
2022/02/01 16:43:39;;;;;;;89.65;33.42;;;;;;;1.91;83.76;99476.97;6264887;28;20066;-69
2022/02/01 16:46:41;;;;;;;73.97;30.77;;;;;;;1.94;83.74;99470.91;6280583;28;20071;-69
2022/02/01 16:49:44;;;;;;;80.93;32.30;;;;;;;1.92;84.52;99477.84;6298825;28;20289;-69